Time;durP1;ratioP1;P1;durP2;ratioP2;P2;SDS_P1;SDS_P2;PMS_P1;PMS_P2;Temp;Humidity;BMP_temperature;BMP_pressure;BME280_temperature;BME280_humidity;BME280_pressure;Samples;Min_cycle;Max_cycle;Signal;HPM_P1;HPM_P2
2024/02/19 00:00:05;;;;;;;57.53;2.77;;;;;;;;;;5073574;28;20526;-69
2024/02/19 00:02:32;;;;;;;56.80;2.93;;;;;;;;;;5073527;28;20457;-69
2024/02/19 00:04:59;;;;;;;56.37;2.50;;;;;;;;;;5073256;28;20465;-69
2024/02/19 00:07:26;;;;;;;57.07;2.87;;;;;;;;;;5073274;28;20446;-70
2024/02/19 00:09:54;;;;;;;57.50;2.83;;;;;;;;;;5073313;28;20470;-70
2024/02/19 00:12:21;;;;;;;55.90;2.87;;;;;;;;;;5073354;28;20549;-70
2024/02/19 00:14:48;;;;;;;56.17;2.80;;;;;;;;;;5073182;28;20540;-69
2024/02/19 00:17:16;;;;;;;56.20;2.73;;;;;;;;;;5073203;28;20453;-69
2024/02/19 00:19:43;;;;;;;56.80;2.80;;;;;;;;;;5073235;28;20456;-69
2024/02/19 00:22:10;;;;;;;56.87;2.83;;;;;;;;;;5072887;28;20450;-69
2024/02/19 00:24:39;;;;;;;56.30;2.73;;;;;;;;;;5072891;28;20545;-69
2024/02/19 00:27:07;;;;;;;57.40;2.83;;;;;;;;;;5073134;28;20791;-69
2024/02/19 00:29:34;;;;;;;55.77;2.73;;;;;;;;;;5073044;28;20520;-69
2024/02/19 00:32:02;;;;;;;55.90;2.63;;;;;;;;;;5072709;28;20446;-70
2024/02/19 00:34:31;;;;;;;56.57;2.67;;;;;;;;;;5072868;28;20626;-69
2024/02/19 00:36:58;;;;;;;56.07;2.57;;;;;;;;;;5072537;28;20998;-69
2024/02/19 00:39:25;;;;;;;55.90;2.63;;;;;;;;;;5072865;28;20454;-69
2024/02/19 00:41:52;;;;;;;55.87;2.50;;;;;;;;;;5072417;28;20461;-69
2024/02/19 00:44:20;;;;;;;55.27;2.53;;;;;;;;;;5072295;28;20942;-70
2024/02/19 00:46:47;;;;;;;56.00;2.60;;;;;;;;;;5072378;28;20563;-70
2024/02/19 00:49:14;;;;;;;56.00;2.70;;;;;;;;;;5072336;28;20490;-70
2024/02/19 00:51:43;;;;;;;55.83;3.00;;;;;;;;;;5072348;28;20461;-69
2024/02/19 00:54:10;;;;;;;57.17;2.80;;;;;;;;;;5064495;28;20448;-69
2024/02/19 00:56:37;;;;;;;56.00;2.60;;;;;;;;;;5072305;28;20564;-69
2024/02/19 00:59:04;;;;;;;55.50;2.83;;;;;;;;;;5072339;28;20489;-69
2024/02/19 01:01:32;;;;;;;55.37;2.37;;;;;;;;;;5072389;28;20452;-69
2024/02/19 01:03:59;;;;;;;56.37;2.90;;;;;;;;;;5072021;28;20455;-69
2024/02/19 01:06:26;;;;;;;55.30;2.63;;;;;;;;;;5072052;28;20473;-69
2024/02/19 01:08:54;;;;;;;56.20;2.60;;;;;;;;;;5072102;28;20493;-69
2024/02/19 01:11:21;;;;;;;56.47;2.77;;;;;;;;;;5072063;28;20473;-69
2024/02/19 01:13:49;;;;;;;55.80;2.20;;;;;;;;;;5071894;28;20536;-69
2024/02/19 01:16:16;;;;;;;55.73;2.03;;;;;;;;;;5071976;28;20563;-70
2024/02/19 01:18:43;;;;;;;55.50;2.17;;;;;;;;;;5071848;28;20446;-69
2024/02/19 01:21:10;;;;;;;55.77;2.37;;;;;;;;;;5064052;28;20449;-69
2024/02/19 01:23:38;;;;;;;55.23;2.10;;;;;;;;;;5071666;28;20456;-68
2024/02/19 01:26:06;;;;;;;56.20;2.47;;;;;;;;;;5071865;28;20500;-69
2024/02/19 01:28:33;;;;;;;55.30;2.37;;;;;;;;;;5071721;28;20485;-69
2024/02/19 01:31:00;;;;;;;55.70;2.17;;;;;;;;;;5071832;28;20446;-70
2024/02/19 01:33:27;;;;;;;55.87;2.30;;;;;;;;;;5071413;28;20450;-69
2024/02/19 01:35:55;;;;;;;55.67;2.13;;;;;;;;;;5071780;28;20492;-69
2024/02/19 01:38:22;;;;;;;55.70;2.30;;;;;;;;;;5071804;28;20453;-69
2024/02/19 01:40:49;;;;;;;56.67;2.50;;;;;;;;;;5071706;28;20507;-70
2024/02/19 01:43:18;;;;;;;55.37;2.50;;;;;;;;;;5071529;28;20451;-70
2024/02/19 01:45:45;;;;;;;55.50;2.60;;;;;;;;;;5071590;28;20464;-69
2024/02/19 01:48:13;;;;;;;55.47;2.60;;;;;;;;;;5071695;28;20489;-69
2024/02/19 01:50:40;;;;;;;56.23;2.80;;;;;;;;;;5071720;28;20464;-69
2024/02/19 01:53:08;;;;;;;55.40;2.50;;;;;;;;;;5071256;28;20951;-69
2024/02/19 01:55:36;;;;;;;55.83;2.67;;;;;;;;;;5070835;28;20559;-69
2024/02/19 01:58:05;;;;;;;55.27;2.43;;;;;;;;;;5071304;28;20449;-69
2024/02/19 02:00:34;;;;;;;56.70;2.67;;;;;;;;;;5071180;28;20457;-69
2024/02/19 02:03:02;;;;;;;56.07;2.70;;;;;;;;;;5071338;28;20834;-70
2024/02/19 02:05:29;;;;;;;55.97;3.00;;;;;;;;;;5071446;28;20472;-69
2024/02/19 02:07:56;;;;;;;56.30;2.80;;;;;;;;;;5071136;28;20950;-69
2024/02/19 02:10:23;;;;;;;56.30;2.63;;;;;;;;;;5071408;28;20449;-69
2024/02/19 02:12:50;;;;;;;55.80;2.63;;;;;;;;;;5071134;28;20852;-69
2024/02/19 02:15:18;;;;;;;56.23;2.83;;;;;;;;;;5071590;28;20475;-69
2024/02/19 02:17:46;;;;;;;56.27;2.70;;;;;;;;;;5071332;28;20445;-69
2024/02/19 02:20:13;;;;;;;57.10;3.10;;;;;;;;;;5063307;28;20449;-70
2024/02/19 02:22:42;;;;;;;58.67;2.90;;;;;;;;;;5071082;28;21051;-69
2024/02/19 02:25:09;;;;;;;56.00;3.00;;;;;;;;;;5071083;28;20516;-69
2024/02/19 02:27:38;;;;;;;55.87;2.63;;;;;;;;;;5071076;28;20446;-69
2024/02/19 02:30:06;;;;;;;56.20;3.10;;;;;;;;;;5070866;28;21016;-69
2024/02/19 02:32:34;;;;;;;56.07;3.20;;;;;;;;;;5071156;28;20508;-68
2024/02/19 02:35:02;;;;;;;56.07;3.17;;;;;;;;;;5070909;28;20483;-71
2024/02/19 02:37:30;;;;;;;56.40;3.33;;;;;;;;;;5071048;28;20452;-68
2024/02/19 02:39:57;;;;;;;55.70;3.00;;;;;;;;;;5071012;28;21055;-68
2024/02/19 02:42:24;;;;;;;55.73;3.20;;;;;;;;;;5071186;28;20448;-68
2024/02/19 02:44:53;;;;;;;60.83;3.10;;;;;;;;;;5070851;28;20574;-69
2024/02/19 02:47:20;;;;;;;56.17;3.00;;;;;;;;;;5071097;28;20454;-69
2024/02/19 02:49:47;;;;;;;59.93;3.17;;;;;;;;;;5070371;28;20485;-68
2024/02/19 02:52:14;;;;;;;57.43;3.60;;;;;;;;;;5070974;28;20829;-69
2024/02/19 02:54:41;;;;;;;56.77;3.23;;;;;;;;;;5071134;28;20455;-69
2024/02/19 02:57:08;;;;;;;57.57;3.70;;;;;;;;;;5071004;28;20449;-69
2024/02/19 02:59:35;;;;;;;58.80;3.70;;;;;;;;;;5070842;28;20956;-69
2024/02/19 03:02:04;;;;;;;56.40;3.50;;;;;;;;;;5070573;28;20453;-69
2024/02/19 03:04:31;;;;;;;57.27;3.47;;;;;;;;;;5070980;28;20452;-69
2024/02/19 03:06:59;;;;;;;57.33;3.90;;;;;;;;;;5071972;28;20454;-69
2024/02/19 03:09:26;;;;;;;58.40;3.77;;;;;;;;;;5074469;28;20495;-70
2024/02/19 03:11:53;;;;;;;57.40;3.53;;;;;;;;;;5074309;28;20458;-70
2024/02/19 03:14:20;;;;;;;56.67;3.57;;;;;;;;;;5074570;28;20449;-70
2024/02/19 03:16:47;;;;;;;56.70;3.30;;;;;;;;;;5074317;28;20466;-69
2024/02/19 03:19:16;;;;;;;57.30;3.90;;;;;;;;;;5074147;28;20814;-70
2024/02/19 03:21:43;;;;;;;56.87;3.30;;;;;;;;;;5074459;28;20452;-70
2024/02/19 03:24:10;;;;;;;57.30;3.97;;;;;;;;;;5074196;28;20440;-71
2024/02/19 03:26:37;;;;;;;57.43;3.70;;;;;;;;;;5074173;28;20463;-70
2024/02/19 03:29:11;;;;;;;57.57;4.20;;;;;;;;;;5074431;28;20499;-70
2024/02/19 03:31:38;;;;;;;57.50;3.60;;;;;;;;;;5074101;28;20484;-69
2024/02/19 03:34:05;;;;;;;56.90;3.70;;;;;;;;;;5074016;28;20457;-70
2024/02/19 03:36:34;;;;;;;56.77;3.57;;;;;;;;;;5074258;28;20471;-70
2024/02/19 03:39:01;;;;;;;57.20;2.90;;;;;;;;;;5073869;28;20450;-70
2024/02/19 03:41:28;;;;;;;59.00;3.80;;;;;;;;;;5073965;28;20449;-70
2024/02/19 03:43:55;;;;;;;57.10;3.67;;;;;;;;;;5073583;28;20460;-70
2024/02/19 03:46:22;;;;;;;57.30;4.00;;;;;;;;;;5073732;28;20469;-70
2024/02/19 03:48:49;;;;;;;58.97;3.93;;;;;;;;;;5073850;28;20880;-69
2024/02/19 03:51:16;;;;;;;56.97;4.27;;;;;;;;;;5074021;28;20447;-70
2024/02/19 03:53:45;;;;;;;57.10;4.07;;;;;;;;;;5073579;28;20548;-70
2024/02/19 03:56:12;;;;;;;58.60;4.23;;;;;;;;;;5073467;28;20475;-70
2024/02/19 03:58:40;;;;;;;57.77;4.10;;;;;;;;;;5073395;28;20453;-70
2024/02/19 04:01:07;;;;;;;57.07;4.40;;;;;;;;;;5073743;28;20854;-70
2024/02/19 04:03:34;;;;;;;59.10;4.20;;;;;;;;;;5073617;28;20863;-70
2024/02/19 04:06:01;;;;;;;57.80;4.60;;;;;;;;;;5073621;28;20465;-70
2024/02/19 04:08:28;;;;;;;59.10;4.23;;;;;;;;;;5073298;28;20440;-70
2024/02/19 04:10:57;;;;;;;58.93;4.50;;;;;;;;;;5073339;28;20848;-70
2024/02/19 04:13:24;;;;;;;56.77;4.13;;;;;;;;;;5073050;28;20457;-70
2024/02/19 04:15:51;;;;;;;58.00;4.67;;;;;;;;;;5073128;28;20478;-70
2024/02/19 04:18:18;;;;;;;56.90;4.40;;;;;;;;;;5064395;28;20453;-70
2024/02/19 04:20:45;;;;;;;60.00;4.67;;;;;;;;;;5073299;28;20446;-70
2024/02/19 04:23:12;;;;;;;57.60;4.80;;;;;;;;;;5073047;28;20459;-70
2024/02/19 04:25:40;;;;;;;58.53;4.90;;;;;;;;;;5072924;28;20479;-71
2024/02/19 04:28:08;;;;;;;58.10;4.03;;;;;;;;;;5073206;28;20799;-70
2024/02/19 04:30:35;;;;;;;57.80;4.30;;;;;;;;;;5072831;28;20479;-70
2024/02/19 04:33:04;;;;;;;56.60;4.17;;;;;;;;;;5072893;28;20453;-69
2024/02/19 04:35:31;;;;;;;57.47;4.20;;;;;;;;;;5072849;28;20484;-70
2024/02/19 04:37:58;;;;;;;57.10;4.40;;;;;;;;;;5072800;28;20455;-70
2024/02/19 04:40:25;;;;;;;58.53;4.77;;;;;;;;;;5072697;28;20453;-69
2024/02/19 04:42:52;;;;;;;59.53;4.80;;;;;;;;;;5073031;28;20453;-70
2024/02/19 04:45:21;;;;;;;58.00;4.50;;;;;;;;;;5072699;28;20477;-70
2024/02/19 04:47:48;;;;;;;57.57;3.80;;;;;;;;;;5072718;28;20823;-70
2024/02/19 04:50:15;;;;;;;57.77;3.80;;;;;;;;;;5072607;28;20507;-70
2024/02/19 04:52:42;;;;;;;57.33;4.13;;;;;;;;;;5072326;28;20446;-70
2024/02/19 04:55:10;;;;;;;56.80;4.07;;;;;;;;;;5072399;28;20477;-70
2024/02/19 04:57:37;;;;;;;56.97;4.47;;;;;;;;;;5072757;28;20528;-70
2024/02/19 05:00:04;;;;;;;57.47;4.30;;;;;;;;;;5072449;28;20449;-71
2024/02/19 05:02:33;;;;;;;58.70;4.50;;;;;;;;;;5072387;28;20448;-70
2024/02/19 05:05:00;;;;;;;56.80;4.23;;;;;;;;;;5072203;28;20473;-70
2024/02/19 05:07:27;;;;;;;58.90;5.37;;;;;;;;;;5072120;28;20931;-70
2024/02/19 05:09:54;;;;;;;57.07;3.70;;;;;;;;;;5072516;28;20497;-70
2024/02/19 05:12:21;;;;;;;60.47;4.13;;;;;;;;;;5072290;28;20456;-70
2024/02/19 05:14:48;;;;;;;57.67;5.00;;;;;;;;;;5072129;28;20449;-70
2024/02/19 05:17:15;;;;;;;58.17;4.60;;;;;;;;;;5072092;28;20446;-70
2024/02/19 05:19:44;;;;;;;60.83;5.73;;;;;;;;;;5072087;28;20449;-70
2024/02/19 05:22:11;;;;;;;58.20;4.73;;;;;;;;;;5071870;28;20444;-69
2024/02/19 05:24:38;;;;;;;58.60;4.77;;;;;;;;;;5072089;28;20446;-70
2024/02/19 05:27:05;;;;;;;61.60;5.60;;;;;;;;;;5072234;28;20447;-70
2024/02/19 05:29:32;;;;;;;59.97;6.20;;;;;;;;;;5071518;28;20488;-71
2024/02/19 05:32:00;;;;;;;58.20;4.70;;;;;;;;;;5071043;28;20445;-70
2024/02/19 05:34:28;;;;;;;60.67;4.97;;;;;;;;;;5071724;28;20515;-70
2024/02/19 05:36:57;;;;;;;62.43;4.90;;;;;;;;;;5072254;28;20481;-70
2024/02/19 05:39:24;;;;;;;60.70;5.47;;;;;;;;;;5063980;28;20451;-69
2024/02/19 05:41:52;;;;;;;60.17;5.53;;;;;;;;;;5071634;28;20451;-70
2024/02/19 05:44:19;;;;;;;59.17;5.07;;;;;;;;;;5071808;28;20449;-69
2024/02/19 05:46:46;;;;;;;60.07;5.53;;;;;;;;;;5071642;28;20847;-70
2024/02/19 05:49:13;;;;;;;61.10;4.80;;;;;;;;;;5071409;28;20455;-70
2024/02/19 05:51:41;;;;;;;60.93;5.40;;;;;;;;;;5071649;28;20449;-70
2024/02/19 05:54:09;;;;;;;59.27;5.10;;;;;;;;;;5071549;28;20441;-69
2024/02/19 05:56:36;;;;;;;58.40;4.77;;;;;;;;;;5071502;28;20473;-70
2024/02/19 05:59:03;;;;;;;59.20;4.77;;;;;;;;;;5071879;28;20801;-70
2024/02/19 06:01:30;;;;;;;59.77;5.03;;;;;;;;;;5071469;28;20444;-70
2024/02/19 06:03:58;;;;;;;59.10;5.20;;;;;;;;;;5071598;28;20451;-70
2024/02/19 06:06:25;;;;;;;60.07;4.97;;;;;;;;;;5071642;28;20461;-70
2024/02/19 06:08:52;;;;;;;61.97;5.33;;;;;;;;;;5071817;28;20536;-70
2024/02/19 06:11:21;;;;;;;57.70;4.87;;;;;;;;;;5071254;28;20489;-69
2024/02/19 06:13:48;;;;;;;57.90;4.57;;;;;;;;;;5071151;28;20449;-70
2024/02/19 06:16:16;;;;;;;60.40;4.87;;;;;;;;;;5071596;28;20812;-70
2024/02/19 06:18:43;;;;;;;58.47;5.13;;;;;;;;;;5071666;28;20468;-70
2024/02/19 06:21:11;;;;;;;63.03;5.03;;;;;;;;;;5071333;28;20450;-70
2024/02/19 06:23:38;;;;;;;57.23;4.03;;;;;;;;;;5071113;28;20552;-70
2024/02/19 06:26:05;;;;;;;59.67;4.67;;;;;;;;;;5071142;28;20848;-70
2024/02/19 06:28:33;;;;;;;58.40;4.60;;;;;;;;;;5071036;28;20454;-70
2024/02/19 06:31:00;;;;;;;59.40;4.70;;;;;;;;;;5071288;28;20848;-70
2024/02/19 06:33:27;;;;;;;58.20;5.13;;;;;;;;;;5071060;28;20455;-70
2024/02/19 06:35:55;;;;;;;60.40;4.23;;;;;;;;;;5071248;28;20471;-70
2024/02/19 06:38:22;;;;;;;57.80;4.30;;;;;;;;;;5070926;28;20541;-71
2024/02/19 06:40:49;;;;;;;59.97;4.60;;;;;;;;;;5071157;28;20941;-70
2024/02/19 06:43:18;;;;;;;58.20;4.07;;;;;;;;;;5074034;28;20454;-71
2024/02/19 06:45:46;;;;;;;58.00;4.70;;;;;;;;;;5075062;28;20868;-70
2024/02/19 06:48:14;;;;;;;61.30;4.40;;;;;;;;;;5075012;28;20452;-70
2024/02/19 06:50:41;;;;;;;58.07;4.30;;;;;;;;;;5074991;28;20484;-70
2024/02/19 06:53:08;;;;;;;58.47;4.43;;;;;;;;;;5074616;28;20448;-70
2024/02/19 06:55:35;;;;;;;57.90;4.30;;;;;;;;;;5074716;28;20469;-71
2024/02/19 06:58:02;;;;;;;59.13;3.90;;;;;;;;;;5074571;28;20476;-70
2024/02/19 07:00:29;;;;;;;61.90;4.03;;;;;;;;;;5074868;28;20544;-70
2024/02/19 07:02:57;;;;;;;57.27;4.00;;;;;;;;;;5074648;28;20452;-70
2024/02/19 07:05:25;;;;;;;61.83;3.90;;;;;;;;;;5074527;28;20463;-70
2024/02/19 07:07:52;;;;;;;57.70;4.40;;;;;;;;;;5074995;28;20446;-70
2024/02/19 07:10:19;;;;;;;56.63;3.80;;;;;;;;;;5074209;28;20480;-70
2024/02/19 07:12:46;;;;;;;64.20;5.00;;;;;;;;;;5074545;28;20444;-70
2024/02/19 07:15:13;;;;;;;62.63;4.90;;;;;;;;;;5074784;28;20476;-70
2024/02/19 07:17:40;;;;;;;60.97;4.07;;;;;;;;;;5074328;28;20797;-70
2024/02/19 07:20:09;;;;;;;59.33;3.80;;;;;;;;;;5074271;28;20445;-70
2024/02/19 07:22:36;;;;;;;59.07;4.50;;;;;;;;;;5074076;28;20506;-71
2024/02/19 07:25:04;;;;;;;57.40;3.93;;;;;;;;;;5074042;28;20468;-70
2024/02/19 07:27:31;;;;;;;58.83;4.03;;;;;;;;;;5074066;28;20453;-70
2024/02/19 07:29:58;;;;;;;60.03;4.40;;;;;;;;;;5074152;28;20492;-69
2024/02/19 07:32:25;;;;;;;60.60;4.47;;;;;;;;;;5073788;28;20451;-70
2024/02/19 07:34:52;;;;;;;59.73;3.90;;;;;;;;;;5073859;28;20957;-70
2024/02/19 07:37:21;;;;;;;58.87;4.53;;;;;;;;;;5073941;28;20540;-70
2024/02/19 07:39:48;;;;;;;57.03;3.70;;;;;;;;;;5073972;28;20452;-70
2024/02/19 07:42:15;;;;;;;57.40;3.50;;;;;;;;;;5073705;28;20942;-71
2024/02/19 07:44:43;;;;;;;58.00;3.53;;;;;;;;;;5073738;28;20944;-70
2024/02/19 07:47:11;;;;;;;57.83;3.03;;;;;;;;;;5073871;28;20870;-71
2024/02/19 07:49:38;;;;;;;55.83;3.33;;;;;;;;;;5073738;28;20454;-70
2024/02/19 07:52:05;;;;;;;57.30;3.27;;;;;;;;;;5073427;28;20452;-70
2024/02/19 07:54:34;;;;;;;61.10;3.20;;;;;;;;;;5072872;28;20453;-69
2024/02/19 07:57:01;;;;;;;55.97;3.10;;;;;;;;;;5073589;28;20958;-70
2024/02/19 07:59:28;;;;;;;56.00;3.63;;;;;;;;;;5073863;28;20446;-70
2024/02/19 08:01:55;;;;;;;58.27;3.30;;;;;;;;;;5073360;28;20453;-71
2024/02/19 08:04:26;;;;;;;59.90;3.13;;;;;;;;;;5073405;28;20447;-70
2024/02/19 08:06:54;;;;;;;56.87;3.10;;;;;;;;;;5073812;28;20861;-70
2024/02/19 08:09:21;;;;;;;56.00;3.47;;;;;;;;;;5073545;28;20444;-70
2024/02/19 08:11:51;;;;;;;57.10;2.90;;;;;;;;;;5073369;28;20496;-70
2024/02/19 08:14:18;;;;;;;57.13;2.63;;;;;;;;;;5073071;28;20953;-70
2024/02/19 08:16:48;;;;;;;57.63;3.17;;;;;;;;;;5073285;28;20476;-70
2024/02/19 08:19:16;;;;;;;57.30;2.70;;;;;;;;;;5073447;28;20448;-70
2024/02/19 08:21:43;;;;;;;63.30;3.27;;;;;;;;;;5073366;28;20441;-71
2024/02/19 08:24:10;;;;;;;57.60;3.53;;;;;;;;;;5073117;28;20446;-70
2024/02/19 08:26:37;;;;;;;55.90;2.67;;;;;;;;;;5073170;28;20466;-70
2024/02/19 08:29:07;;;;;;;55.23;2.43;;;;;;;;;;5072896;28;20443;-70
2024/02/19 08:31:34;;;;;;;59.10;2.90;;;;;;;;;;5072830;28;20488;-70
2024/02/19 08:34:01;;;;;;;58.47;2.87;;;;;;;;;;5072665;28;20501;-70
2024/02/19 08:36:28;;;;;;;60.00;2.87;;;;;;;;;;5073137;28;20466;-71
2024/02/19 08:38:55;;;;;;;56.97;3.10;;;;;;;;;;5072770;28;20448;-70
2024/02/19 08:41:22;;;;;;;57.50;2.60;;;;;;;;;;5072733;28;20442;-70
2024/02/19 08:43:50;;;;;;;56.00;2.47;;;;;;;;;;5072498;28;20466;-70
2024/02/19 08:46:18;;;;;;;60.73;3.33;;;;;;;;;;5072579;28;20476;-71
2024/02/19 08:48:46;;;;;;;55.37;2.80;;;;;;;;;;5072783;28;20536;-70
2024/02/19 08:51:13;;;;;;;55.37;2.50;;;;;;;;;;5072401;28;20499;-70
2024/02/19 08:53:40;;;;;;;57.77;3.20;;;;;;;;;;5072540;28;20449;-70
2024/02/19 08:56:07;;;;;;;56.50;2.77;;;;;;;;;;5072542;28;20525;-71
2024/02/19 08:58:34;;;;;;;57.90;3.00;;;;;;;;;;5072449;28;20478;-71
2024/02/19 09:01:02;;;;;;;57.07;3.27;;;;;;;;;;5072618;28;20450;-70
2024/02/19 09:03:31;;;;;;;56.87;2.20;;;;;;;;;;5072216;28;20446;-70
2024/02/19 09:05:58;;;;;;;55.53;2.43;;;;;;;;;;5072349;28;20469;-70
2024/02/19 09:08:25;;;;;;;55.97;2.30;;;;;;;;;;5072251;28;20471;-69
2024/02/19 09:10:53;;;;;;;55.73;2.07;;;;;;;;;;5072224;28;20492;-70
2024/02/19 09:13:20;;;;;;;56.70;2.67;;;;;;;;;;5071996;28;21129;-71
2024/02/19 09:15:47;;;;;;;58.77;3.13;;;;;;;;;;5072281;28;20473;-70
2024/02/19 09:18:14;;;;;;;60.13;2.90;;;;;;;;;;5071992;28;20467;-70
2024/02/19 09:20:43;;;;;;;59.40;2.90;;;;;;;;;;5072120;28;20471;-71
2024/02/19 09:23:10;;;;;;;58.37;3.40;;;;;;;;;;5071851;28;20893;-70
2024/02/19 09:25:37;;;;;;;56.70;2.80;;;;;;;;;;5071821;28;20508;-70
2024/02/19 09:28:06;;;;;;;57.10;3.60;;;;;;;;;;5071878;28;20972;-70
2024/02/19 09:30:34;;;;;;;56.83;3.00;;;;;;;;;;5063815;28;20861;-70
2024/02/19 09:33:01;;;;;;;60.23;3.47;;;;;;;;;;5071944;28;20646;-70
2024/02/19 09:35:28;;;;;;;55.57;2.87;;;;;;;;;;5071626;28;20478;-70
2024/02/19 09:37:56;;;;;;;55.80;2.80;;;;;;;;;;5071734;28;20902;-70
2024/02/19 09:40:25;;;;;;;56.10;2.50;;;;;;;;;;5071564;28;20527;-70
2024/02/19 09:42:52;;;;;;;57.80;3.03;;;;;;;;;;5071921;28;20453;-70
2024/02/19 09:45:20;;;;;;;58.80;3.57;;;;;;;;;;5071661;28;20474;-70
2024/02/19 09:47:49;;;;;;;56.43;2.93;;;;;;;;;;5071799;28;20445;-70
2024/02/19 09:50:17;;;;;;;57.83;2.77;;;;;;;;;;5071533;28;20451;-70
2024/02/19 09:52:45;;;;;;;57.40;3.03;;;;;;;;;;5071999;28;20458;-70
2024/02/19 09:55:14;;;;;;;58.70;2.83;;;;;;;;;;5071377;28;20466;-70
2024/02/19 09:57:41;;;;;;;59.50;3.00;;;;;;;;;;5051757;28;20473;-70
2024/02/19 10:00:10;;;;;;;55.70;2.53;;;;;;;;;;5051744;28;20457;-70
2024/02/19 10:02:38;;;;;;;58.17;2.50;;;;;;;;;;5063460;28;20435;-70
2024/02/19 10:05:07;;;;;;;57.27;2.40;;;;;;;;;;5071505;28;20477;-70
2024/02/19 10:07:35;;;;;;;56.57;2.87;;;;;;;;;;5071218;28;20509;-70
2024/02/19 10:10:04;;;;;;;57.07;2.63;;;;;;;;;;5071670;28;20451;-70
2024/02/19 10:12:33;;;;;;;57.17;2.77;;;;;;;;;;5071300;28;20537;-70
2024/02/19 10:15:00;;;;;;;56.77;2.83;;;;;;;;;;5071367;28;20471;-70
2024/02/19 10:17:29;;;;;;;59.20;3.40;;;;;;;;;;5073343;28;20464;-70
2024/02/19 10:20:05;;;;;;;58.87;2.87;;;;;;;;;;5075491;28;20457;-70
2024/02/19 10:22:32;;;;;;;57.67;2.60;;;;;;;;;;5076200;28;20763;-70
2024/02/19 10:25:00;;;;;;;58.87;3.20;;;;;;;;;;5075556;28;20473;-70
2024/02/19 10:27:31;;;;;;;59.97;2.90;;;;;;;;;;5075422;28;20458;-70
2024/02/19 10:30:00;;;;;;;56.77;3.10;;;;;;;;;;5075471;28;20459;-70
2024/02/19 10:32:27;;;;;;;56.63;3.10;;;;;;;;;;5075026;28;20481;-70
2024/02/19 10:34:55;;;;;;;57.07;3.17;;;;;;;;;;5075465;28;21921;-70
2024/02/19 10:37:22;;;;;;;55.80;2.47;;;;;;;;;;5075244;28;20459;-70
2024/02/19 10:39:49;;;;;;;60.63;2.70;;;;;;;;;;5075295;28;20457;-70
2024/02/19 10:42:17;;;;;;;58.87;3.20;;;;;;;;;;5074751;28;20452;-71
2024/02/19 10:44:44;;;;;;;56.10;2.77;;;;;;;;;;5074868;28;20453;-70
2024/02/19 10:47:12;;;;;;;58.57;2.87;;;;;;;;;;5075081;28;20455;-70
2024/02/19 10:49:48;;;;;;;57.17;2.87;;;;;;;;;;5067386;28;20473;-70
2024/02/19 10:52:15;;;;;;;59.20;3.27;;;;;;;;;;5074878;28;20833;-70
2024/02/19 10:54:43;;;;;;;57.30;2.90;;;;;;;;;;5075031;28;20449;-71
2024/02/19 10:57:10;;;;;;;56.40;2.70;;;;;;;;;;5075052;28;20449;-70
2024/02/19 10:59:38;;;;;;;57.63;2.70;;;;;;;;;;5074742;28;20456;-70
2024/02/19 11:02:11;;;;;;;59.40;2.83;;;;;;;;;;5074952;28;20549;-70
2024/02/19 11:04:41;;;;;;;57.50;2.67;;;;;;;;;;5066513;28;20448;-70
2024/02/19 11:07:08;;;;;;;56.87;2.77;;;;;;;;;;5074710;28;20449;-70
2024/02/19 11:09:35;;;;;;;58.70;3.00;;;;;;;;;;5074397;28;20455;-71
2024/02/19 11:12:05;;;;;;;60.27;2.97;;;;;;;;;;5074351;28;20490;-70
2024/02/19 11:14:33;;;;;;;59.00;2.80;;;;;;;;;;5074671;28;20507;-70
2024/02/19 11:17:01;;;;;;;57.03;2.40;;;;;;;;;;5074680;28;20471;-70
2024/02/19 11:19:29;;;;;;;61.40;2.67;;;;;;;;;;5074415;28;20537;-70
2024/02/19 11:22:04;;;;;;;56.13;2.47;;;;;;;;;;5074449;28;20483;-71
2024/02/19 11:24:33;;;;;;;57.50;2.80;;;;;;;;;;5074271;28;20801;-71
2024/02/19 11:27:00;;;;;;;63.30;3.10;;;;;;;;;;5074280;28;21024;-70
2024/02/19 11:29:27;;;;;;;57.07;2.70;;;;;;;;;;5074334;28;20437;-71
2024/02/19 11:32:01;;;;;;;63.53;2.70;;;;;;;;;;5074250;28;20485;-70
2024/02/19 11:34:28;;;;;;;56.97;2.70;;;;;;;;;;5074006;28;20469;-71
2024/02/19 11:36:57;;;;;;;58.90;2.83;;;;;;;;;;5073932;28;20501;-71
2024/02/19 11:39:25;;;;;;;57.43;2.80;;;;;;;;;;5073928;28;20454;-70
2024/02/19 11:41:52;;;;;;;56.77;2.90;;;;;;;;;;5074291;28;20443;-70
2024/02/19 11:44:20;;;;;;;57.80;2.40;;;;;;;;;;5073768;28;20776;-71
2024/02/19 11:46:47;;;;;;;58.40;2.63;;;;;;;;;;5073923;28;20470;-71
2024/02/19 11:49:14;;;;;;;61.00;2.63;;;;;;;;;;5073919;28;20446;-70
2024/02/19 11:51:42;;;;;;;56.60;2.30;;;;;;;;;;5073820;28;20496;-70
2024/02/19 11:54:11;;;;;;;59.83;2.53;;;;;;;;;;5073954;28;20703;-70
2024/02/19 11:56:46;;;;;;;59.30;2.83;;;;;;;;;;5073737;28;20466;-70
2024/02/19 11:59:13;;;;;;;58.87;2.30;;;;;;;;;;5073663;28;20994;-70
2024/02/19 12:01:40;;;;;;;56.80;2.80;;;;;;;;;;5073617;28;20450;-70
2024/02/19 12:04:08;;;;;;;58.70;2.77;;;;;;;;;;5073324;28;20450;-70
2024/02/19 12:06:36;;;;;;;60.63;3.30;;;;;;;;;;5073705;28;20475;-70
2024/02/19 12:09:03;;;;;;;57.90;3.07;;;;;;;;;;5073460;28;20450;-70
2024/02/19 12:11:30;;;;;;;58.50;2.80;;;;;;;;;;5073517;28;20496;-70
2024/02/19 12:13:59;;;;;;;58.77;2.57;;;;;;;;;;5073425;28;20473;-70
2024/02/19 12:16:27;;;;;;;61.07;3.50;;;;;;;;;;5073183;28;20473;-70
2024/02/19 12:18:55;;;;;;;57.20;2.70;;;;;;;;;;5073520;28;20462;-70
2024/02/19 12:21:22;;;;;;;61.73;3.53;;;;;;;;;;5073361;28;20443;-70
2024/02/19 12:23:52;;;;;;;57.90;2.97;;;;;;;;;;5073072;28;20537;-70
2024/02/19 12:26:19;;;;;;;56.10;2.57;;;;;;;;;;5073179;28;20528;-70
2024/02/19 12:28:46;;;;;;;56.40;2.20;;;;;;;;;;5073038;28;20460;-70
2024/02/19 12:31:15;;;;;;;56.63;2.73;;;;;;;;;;5072984;28;20515;-70
2024/02/19 12:33:43;;;;;;;57.60;2.47;;;;;;;;;;5064741;28;20852;-70
2024/02/19 12:36:12;;;;;;;58.43;2.30;;;;;;;;;;5072934;28;21001;-70
2024/02/19 12:38:41;;;;;;;62.90;2.50;;;;;;;;;;5073013;28;20836;-70
2024/02/19 12:41:09;;;;;;;56.70;2.73;;;;;;;;;;5072597;28;20478;-71
2024/02/19 12:43:36;;;;;;;57.67;2.80;;;;;;;;;;5072594;28;20447;-70
2024/02/19 12:46:05;;;;;;;57.17;2.67;;;;;;;;;;5073021;28;20474;-71
2024/02/19 12:48:34;;;;;;;57.40;2.40;;;;;;;;;;5072658;28;20944;-71
2024/02/19 12:51:02;;;;;;;58.20;2.70;;;;;;;;;;5073014;28;20497;-70
2024/02/19 12:53:29;;;;;;;56.37;2.63;;;;;;;;;;5072365;28;20483;-70
2024/02/19 12:55:56;;;;;;;57.00;2.30;;;;;;;;;;5072583;28;20468;-71
2024/02/19 12:58:24;;;;;;;57.47;3.00;;;;;;;;;;5072406;28;20458;-71
2024/02/19 13:00:51;;;;;;;56.77;2.10;;;;;;;;;;5072666;28;20444;-71
2024/02/19 13:03:19;;;;;;;56.70;2.50;;;;;;;;;;5072418;28;20822;-70
2024/02/19 13:05:47;;;;;;;60.00;2.90;;;;;;;;;;5072496;28;20482;-70
2024/02/19 13:08:17;;;;;;;57.20;2.77;;;;;;;;;;5072478;28;20446;-71
2024/02/19 13:10:44;;;;;;;55.70;2.00;;;;;;;;;;5064000;28;20916;-71
2024/02/19 13:13:11;;;;;;;57.47;2.70;;;;;;;;;;5072395;28;20556;-71
2024/02/19 13:15:40;;;;;;;56.40;2.30;;;;;;;;;;5072015;28;20562;-71
2024/02/19 13:18:07;;;;;;;56.27;2.27;;;;;;;;;;5072199;28;20904;-70
2024/02/19 13:20:34;;;;;;;57.10;2.93;;;;;;;;;;5072139;28;20808;-71
2024/02/19 13:23:03;;;;;;;56.93;2.53;;;;;;;;;;5072082;28;20507;-71
2024/02/19 13:25:30;;;;;;;61.90;2.97;;;;;;;;;;5072239;28;20830;-71
2024/02/19 13:27:57;;;;;;;56.57;2.40;;;;;;;;;;5072191;28;20451;-71
2024/02/19 13:30:24;;;;;;;58.57;2.63;;;;;;;;;;5072020;28;20451;-71
2024/02/19 13:32:51;;;;;;;58.80;2.70;;;;;;;;;;5071797;28;20855;-70
2024/02/19 13:35:19;;;;;;;59.20;2.60;;;;;;;;;;5071711;28;20492;-71
2024/02/19 13:37:46;;;;;;;56.20;2.30;;;;;;;;;;5063583;28;20457;-71
2024/02/19 13:40:14;;;;;;;57.50;2.30;;;;;;;;;;5072248;28;20941;-71
2024/02/19 13:42:43;;;;;;;58.70;2.70;;;;;;;;;;5071887;28;20455;-71
2024/02/19 13:45:11;;;;;;;56.80;2.40;;;;;;;;;;5071932;28;20841;-71
2024/02/19 13:47:39;;;;;;;58.67;2.90;;;;;;;;;;5071760;28;20552;-71
2024/02/19 13:50:06;;;;;;;56.37;2.20;;;;;;;;;;5071853;28;20448;-71
2024/02/19 13:52:34;;;;;;;60.40;2.90;;;;;;;;;;5070633;28;20522;-71
2024/02/19 13:55:03;;;;;;;59.07;2.83;;;;;;;;;;5071977;28;20473;-71
2024/02/19 13:57:31;;;;;;;58.87;2.53;;;;;;;;;;5071786;28;20462;-71
2024/02/19 13:59:59;;;;;;;62.60;2.70;;;;;;;;;;5072109;28;20819;-71
2024/02/19 14:02:27;;;;;;;57.90;2.80;;;;;;;;;;5071303;28;20463;-71
2024/02/19 14:04:54;;;;;;;57.37;2.97;;;;;;;;;;5071425;28;20819;-71
2024/02/19 14:07:23;;;;;;;57.97;2.73;;;;;;;;;;5071844;28;20454;-71
2024/02/19 14:09:50;;;;;;;57.60;2.60;;;;;;;;;;5071808;28;20446;-71
2024/02/19 14:12:17;;;;;;;59.20;3.10;;;;;;;;;;5071407;28;20511;-71
2024/02/19 14:14:46;;;;;;;58.47;2.90;;;;;;;;;;5071524;28;20442;-71
2024/02/19 14:17:13;;;;;;;57.17;3.00;;;;;;;;;;5071575;28;20953;-71
2024/02/19 14:19:41;;;;;;;58.87;3.07;;;;;;;;;;5071479;28;20487;-71
2024/02/19 14:22:08;;;;;;;58.90;2.73;;;;;;;;;;5071534;28;20450;-71
2024/02/19 14:24:35;;;;;;;58.30;2.73;;;;;;;;;;5071358;28;20453;-71
2024/02/19 14:27:03;;;;;;;58.67;3.40;;;;;;;;;;5071588;28;20542;-71
2024/02/19 14:29:31;;;;;;;58.30;3.10;;;;;;;;;;5071397;28;20808;-71
2024/02/19 14:32:00;;;;;;;57.80;3.27;;;;;;;;;;5070892;28;20454;-71